createdAt,value
2017-05-03T00:01:38.358Z,8.74
2017-05-03T00:04:09.243Z,10.30
2017-05-03T00:06:40.236Z,10.10
2017-05-03T00:09:10.969Z,11.32
2017-05-03T00:11:41.937Z,15.10
2017-05-03T00:14:12.356Z,10.98
2017-05-03T00:16:43.297Z,15.02
2017-05-03T00:19:15.254Z,11.74
2017-05-03T00:21:46.396Z,11.72
2017-05-03T00:24:17.439Z,15.98
2017-05-03T00:26:48.273Z,11.76
2017-05-03T00:29:19.442Z,11.44
2017-05-03T00:31:50.440Z,15.82
2017-05-03T00:34:21.394Z,14.36
2017-05-03T00:36:52.443Z,19.86
2017-05-03T00:39:23.131Z,18.90
2017-05-03T00:41:54.336Z,15.04
2017-05-03T00:44:25.000Z,15.34
2017-05-03T00:46:55.583Z,21.60
2017-05-03T00:49:26.564Z,23.90
2017-05-03T00:51:57.633Z,18.86
2017-05-03T00:54:28.523Z,18.76
2017-05-03T00:56:59.291Z,14.52
2017-05-03T00:59:29.752Z,11.58
2017-05-03T01:02:00.715Z,10.08
2017-05-03T01:04:31.385Z,10.94
2017-05-03T01:07:02.104Z,9.90
2017-05-03T01:09:34.275Z,9.92
2017-05-03T01:12:04.903Z,10.22
2017-05-03T01:14:35.416Z,13.46
2017-05-03T01:17:06.537Z,9.80
2017-05-03T01:19:37.188Z,8.76
2017-05-03T01:22:08.080Z,9.26
2017-05-03T01:24:38.578Z,8.32
2017-05-03T01:27:09.283Z,6.30
2017-05-03T01:29:40.645Z,8.22
2017-05-03T01:32:11.360Z,9.02
2017-05-03T01:34:42.119Z,8.04
2017-05-03T01:37:13.070Z,6.98
2017-05-03T01:39:43.959Z,8.20
2017-05-03T01:42:15.468Z,9.60
2017-05-03T01:44:46.292Z,6.04
2017-05-03T01:47:17.107Z,7.90
2017-05-03T01:49:48.668Z,6.10
2017-05-03T01:52:19.294Z,5.94
2017-05-03T01:54:50.101Z,10.28
2017-05-03T01:57:21.223Z,10.44
2017-05-03T01:59:51.579Z,7.60
2017-05-03T02:02:23.166Z,9.82
2017-05-03T02:04:53.890Z,12.56
2017-05-03T02:07:24.863Z,12.34
2017-05-03T02:09:55.644Z,9.04
2017-05-03T02:12:26.550Z,13.26
2017-05-03T02:14:57.322Z,10.20
2017-05-03T02:17:27.922Z,10.20
2017-05-03T02:19:58.809Z,12.38
2017-05-03T02:22:29.797Z,8.54
2017-05-03T02:25:00.622Z,11.54
2017-05-03T02:27:31.383Z,9.12
2017-05-03T02:30:03.525Z,11.64
2017-05-03T02:32:34.402Z,9.06
2017-05-03T02:35:05.526Z,12.48
2017-05-03T02:37:36.120Z,12.76
2017-05-03T02:40:06.946Z,10.90
2017-05-03T02:42:37.472Z,12.20
2017-05-03T02:45:08.352Z,10.96
2017-05-03T02:47:39.738Z,9.66
2017-05-03T02:50:10.468Z,7.50
2017-05-03T02:52:42.097Z,9.10
2017-05-03T02:55:12.399Z,10.64
2017-05-03T02:57:43.193Z,8.22
2017-05-03T03:00:13.868Z,8.72
2017-05-03T03:02:44.614Z,9.60
2017-05-03T03:05:15.188Z,9.72
2017-05-03T03:07:46.981Z,10.62
2017-05-03T03:10:17.826Z,8.04
2017-05-03T03:12:48.614Z,9.92
2017-05-03T03:15:19.545Z,9.02
2017-05-03T03:17:50.614Z,12.64
2017-05-03T03:20:21.179Z,13.02
2017-05-03T03:22:51.943Z,9.88
2017-05-03T03:25:23.313Z,10.74
2017-05-03T03:27:54.243Z,11.56
2017-05-03T03:30:26.912Z,14.62
2017-05-03T03:32:57.814Z,15.44
2017-05-03T03:35:28.419Z,15.50
2017-05-03T03:37:59.309Z,16.60
2017-05-03T03:40:30.384Z,16.32
2017-05-03T03:43:01.448Z,11.02
2017-05-03T03:45:32.192Z,13.16
2017-05-03T03:48:03.092Z,15.02
2017-05-03T03:50:33.630Z,15.92
2017-05-03T03:53:04.591Z,14.24
2017-05-03T03:55:35.589Z,17.32
2017-05-03T03:58:07.356Z,19.06
2017-05-03T04:00:38.939Z,16.74
2017-05-03T04:03:09.888Z,17.62
2017-05-03T04:05:40.741Z,14.90
2017-05-03T04:08:11.415Z,14.70
2017-05-03T04:10:42.241Z,18.00
2017-05-03T04:13:12.555Z,12.22
2017-05-03T04:15:43.460Z,16.16
2017-05-03T04:18:14.295Z,12.14
2017-05-03T04:20:45.097Z,19.02
2017-05-03T04:23:15.894Z,17.40
2017-05-03T04:25:46.778Z,12.32
2017-05-03T04:28:17.792Z,12.84
2017-05-03T04:30:49.833Z,9.06
2017-05-03T04:33:20.732Z,14.64
2017-05-03T04:35:51.471Z,11.06
2017-05-03T04:38:22.473Z,13.94
2017-05-03T04:40:53.278Z,12.20
2017-05-03T04:43:24.355Z,11.86
2017-05-03T04:45:55.002Z,13.06
2017-05-03T04:48:25.865Z,14.36
2017-05-03T04:50:56.643Z,13.12
2017-05-03T04:53:27.703Z,17.16
2017-05-03T04:55:58.382Z,17.68
2017-05-03T04:58:29.407Z,17.22
2017-05-03T05:01:00.054Z,13.52
2017-05-03T05:03:31.135Z,15.74
2017-05-03T05:06:02.003Z,21.90
2017-05-03T05:08:32.732Z,27.06
2017-05-03T05:11:03.345Z,19.42
2017-05-03T05:13:34.413Z,24.38
2017-05-03T05:16:05.074Z,21.36
2017-05-03T05:18:35.843Z,23.00
2017-05-03T05:21:06.736Z,18.04
2017-05-03T05:23:37.567Z,27.42
2017-05-03T05:26:08.287Z,23.70
2017-05-03T05:28:38.882Z,24.10
2017-05-03T05:31:10.805Z,18.58
2017-05-03T05:33:41.654Z,25.88
2017-05-03T05:36:12.476Z,22.40
2017-05-03T05:38:43.182Z,24.00
2017-05-03T05:41:13.334Z,16.90
2017-05-03T05:43:44.212Z,15.78
2017-05-03T05:46:15.055Z,14.66
2017-05-03T05:48:45.981Z,19.98
2017-05-03T05:51:16.807Z,20.76
2017-05-03T05:53:47.730Z,17.30
2017-05-03T05:56:18.426Z,15.22
2017-05-03T05:58:49.533Z,18.42
2017-05-03T06:01:20.490Z,27.94
2017-05-03T06:03:52.067Z,14.86
2017-05-03T06:06:22.761Z,13.80
2017-05-03T06:08:53.723Z,15.22
2017-05-03T06:11:24.577Z,15.94
2017-05-03T06:13:55.468Z,16.42
2017-05-03T06:16:26.513Z,18.90
2017-05-03T06:18:57.329Z,16.62
2017-05-03T06:21:27.808Z,14.86
2017-05-03T06:23:59.592Z,16.22
2017-05-03T06:26:30.385Z,13.24
2017-05-03T06:29:02.143Z,13.28
2017-05-03T06:31:34.135Z,11.56
2017-05-03T06:34:04.928Z,15.16
2017-05-03T06:36:36.009Z,14.30
2017-05-03T06:39:07.107Z,16.46
2017-05-03T06:41:37.787Z,14.26
2017-05-03T06:44:08.630Z,15.12
2017-05-03T06:46:40.542Z,12.60
2017-05-03T06:49:11.153Z,18.66
2017-05-03T06:51:41.855Z,13.30
2017-05-03T06:54:12.577Z,12.36
2017-05-03T06:56:43.468Z,16.44
2017-05-03T06:59:13.993Z,13.90
2017-05-03T07:01:45.031Z,14.86
2017-05-03T07:04:15.526Z,13.16
2017-05-03T07:06:46.482Z,13.18
2017-05-03T07:09:17.428Z,11.44
2017-05-03T07:11:48.227Z,12.20
2017-05-03T07:14:19.538Z,19.34
2017-05-03T07:16:50.640Z,17.66
2017-05-03T07:19:21.653Z,16.24
2017-05-03T07:21:52.216Z,15.12
2017-05-03T07:24:22.650Z,16.76
2017-05-03T07:26:53.527Z,15.90
2017-05-03T07:29:25.279Z,17.32
2017-05-03T07:31:57.213Z,16.56
2017-05-03T07:34:28.343Z,19.36
2017-05-03T07:36:59.337Z,11.58
2017-05-03T07:39:30.967Z,8.20
2017-05-03T07:42:01.812Z,6.06
2017-05-03T07:44:32.179Z,6.50
2017-05-03T07:47:03.834Z,5.98
2017-05-03T07:49:34.573Z,7.10
2017-05-03T07:52:05.522Z,5.22
2017-05-03T07:54:36.450Z,5.58
2017-05-03T07:57:08.173Z,5.28
2017-05-03T07:59:39.115Z,7.96
2017-05-03T08:02:10.028Z,4.62
2017-05-03T08:04:40.823Z,4.86
2017-05-03T08:07:11.604Z,5.20
2017-05-03T08:09:42.555Z,9.24
2017-05-03T08:12:13.473Z,4.98
2017-05-03T08:14:44.448Z,5.78
2017-05-03T08:17:15.062Z,3.86
2017-05-03T08:19:45.738Z,3.46
2017-05-03T08:22:16.470Z,5.50
2017-05-03T08:24:47.419Z,3.60
2017-05-03T08:27:18.299Z,3.18
2017-05-03T08:29:49.033Z,5.96
2017-05-03T08:32:20.814Z,3.34
2017-05-03T08:34:51.403Z,2.72
2017-05-03T08:37:21.937Z,3.20
2017-05-03T08:39:52.602Z,3.90
2017-05-03T08:42:23.381Z,2.94
2017-05-03T08:44:54.534Z,4.14
2017-05-03T08:47:25.383Z,3.74
2017-05-03T08:49:56.347Z,5.62
2017-05-03T08:52:27.191Z,3.34
2017-05-03T08:54:58.027Z,3.66
2017-05-03T08:57:28.709Z,5.88
2017-05-03T08:59:59.615Z,4.56
2017-05-03T09:02:30.276Z,5.54
2017-05-03T09:05:00.991Z,3.04
2017-05-03T09:07:31.865Z,4.04
2017-05-03T09:10:02.690Z,6.18
2017-05-03T09:12:33.394Z,4.32
2017-05-03T09:15:04.107Z,4.82
2017-05-03T09:17:34.721Z,7.88
2017-05-03T09:20:05.354Z,4.58
2017-05-03T09:22:36.267Z,7.68
2017-05-03T09:25:07.173Z,5.80
2017-05-03T09:27:38.871Z,6.16
2017-05-03T09:30:09.782Z,7.20
2017-05-03T09:32:41.876Z,5.72
2017-05-03T09:35:12.674Z,4.62
2017-05-03T09:37:44.132Z,4.60
2017-05-03T09:40:15.096Z,3.78
2017-05-03T09:42:45.749Z,3.14
2017-05-03T09:45:16.664Z,3.70
2017-05-03T09:47:47.436Z,7.48
2017-05-03T09:50:18.187Z,4.48
2017-05-03T09:52:49.064Z,4.12
2017-05-03T09:55:20.017Z,5.46
2017-05-03T09:57:50.786Z,7.06
2017-05-03T10:00:22.372Z,6.62
2017-05-03T10:02:53.063Z,6.00
2017-05-03T10:05:24.014Z,4.48
2017-05-03T10:07:54.472Z,4.90
2017-05-03T10:10:25.559Z,6.54
2017-05-03T10:12:56.436Z,10.26
2017-05-03T10:15:27.228Z,9.30
2017-05-03T10:17:57.856Z,6.78
2017-05-03T10:20:28.693Z,9.02
2017-05-03T10:22:59.431Z,7.76
2017-05-03T10:25:30.205Z,7.28
2017-05-03T10:28:01.063Z,7.54
2017-05-03T10:30:32.072Z,4.78
2017-05-03T10:33:03.649Z,5.16
2017-05-03T10:35:34.356Z,6.28
2017-05-03T10:38:05.641Z,7.36
2017-05-03T10:40:36.722Z,7.52
2017-05-03T10:43:07.351Z,7.54
2017-05-03T10:45:37.951Z,8.26
2017-05-03T10:48:09.599Z,7.68
2017-05-03T10:50:40.540Z,11.14
2017-05-03T10:53:11.160Z,8.04
2017-05-03T10:55:41.641Z,7.18
2017-05-03T10:58:12.358Z,5.48
2017-05-03T11:00:43.250Z,4.88
2017-05-03T11:03:13.794Z,5.46
2017-05-03T11:05:45.638Z,4.72
2017-05-03T11:08:16.340Z,4.94
2017-05-03T11:10:47.078Z,5.64
2017-05-03T11:13:17.938Z,6.98
2017-05-03T11:15:48.887Z,5.40
2017-05-03T11:18:19.785Z,5.00
2017-05-03T11:20:50.450Z,3.92
2017-05-03T11:23:21.255Z,4.38
2017-05-03T11:25:51.760Z,3.32
2017-05-03T11:28:22.684Z,3.68
2017-05-03T11:30:53.602Z,5.00
2017-05-03T11:33:26.281Z,4.20
2017-05-03T11:35:56.888Z,3.80
2017-05-03T11:38:27.500Z,4.56
2017-05-03T11:40:58.589Z,3.58
2017-05-03T11:43:29.361Z,3.80
2017-05-03T11:46:00.230Z,4.44
2017-05-03T11:48:30.709Z,4.60
2017-05-03T11:51:01.484Z,4.20
2017-05-03T11:53:32.324Z,3.90
2017-05-03T11:56:03.222Z,4.16
2017-05-03T11:58:33.898Z,4.68
2017-05-03T12:01:04.881Z,3.16
2017-05-03T12:03:35.576Z,8.46
2017-05-03T12:06:06.685Z,3.38
2017-05-03T12:08:37.339Z,3.06
2017-05-03T12:11:07.959Z,3.50
2017-05-03T12:13:38.765Z,3.88
2017-05-03T12:16:09.472Z,3.76
2017-05-03T12:18:40.200Z,3.70
2017-05-03T12:21:10.903Z,5.02
2017-05-03T12:23:41.459Z,6.56
2017-05-03T12:26:12.472Z,3.42
2017-05-03T12:28:43.273Z,3.72
2017-05-03T12:31:13.878Z,3.34
2017-05-03T12:33:45.829Z,4.28
2017-05-03T12:36:16.602Z,4.42
2017-05-03T12:38:47.089Z,5.04
2017-05-03T12:41:17.764Z,3.74
2017-05-03T12:43:48.757Z,2.40
2017-05-03T12:46:19.450Z,2.80
2017-05-03T12:48:50.397Z,1.50
2017-05-03T12:51:21.213Z,2.20
2017-05-03T12:53:52.085Z,1.60
2017-05-03T12:56:22.803Z,2.14
2017-05-03T12:58:53.711Z,2.00
2017-05-03T13:01:24.476Z,1.88
2017-05-03T13:03:55.203Z,2.80
2017-05-03T13:06:26.096Z,2.72
2017-05-03T13:08:56.952Z,2.28
2017-05-03T13:11:27.869Z,2.00
2017-05-03T13:13:58.643Z,1.98
2017-05-03T13:16:29.825Z,1.68
2017-05-03T13:19:00.644Z,1.62
2017-05-03T13:21:31.477Z,1.80
2017-05-03T13:24:02.658Z,2.00
2017-05-03T13:26:33.529Z,1.70
2017-05-03T13:29:04.271Z,1.70
2017-05-03T13:31:35.129Z,2.04
2017-05-03T13:34:07.345Z,1.72
2017-05-03T13:36:38.101Z,2.66
2017-05-03T13:39:08.943Z,1.88
2017-05-03T13:41:39.851Z,1.48
2017-05-03T13:44:10.766Z,2.34
2017-05-03T13:46:41.529Z,2.26
2017-05-03T13:49:12.070Z,3.10
2017-05-03T13:51:43.817Z,2.90
2017-05-03T13:54:14.391Z,2.06
2017-05-03T13:56:45.028Z,4.40
2017-05-03T13:59:15.819Z,3.70
2017-05-03T14:01:46.891Z,2.38
2017-05-03T14:04:18.578Z,3.50
2017-05-03T14:06:49.420Z,2.66
2017-05-03T14:09:20.374Z,1.88
2017-05-03T14:11:51.339Z,2.54
2017-05-03T14:14:22.214Z,2.52
2017-05-03T14:16:53.139Z,2.20
2017-05-03T14:19:24.651Z,3.02
2017-05-03T14:21:55.528Z,2.06
2017-05-03T14:24:26.447Z,1.48
2017-05-03T14:26:57.470Z,1.88
2017-05-03T14:29:28.138Z,1.72
2017-05-03T14:31:58.976Z,1.50
2017-05-03T14:34:30.919Z,1.30
2017-05-03T14:37:01.820Z,1.98
2017-05-03T14:39:32.761Z,1.60
2017-05-03T14:42:03.527Z,2.18
2017-05-03T14:44:34.094Z,2.34
2017-05-03T14:47:04.859Z,2.04
2017-05-03T14:49:35.564Z,1.70
2017-05-03T14:52:06.525Z,1.50
2017-05-03T14:54:37.454Z,1.98
2017-05-03T14:57:08.085Z,2.42
2017-05-03T14:59:38.630Z,3.10
2017-05-03T15:02:09.761Z,2.50
2017-05-03T15:04:40.353Z,1.94
2017-05-03T15:07:11.323Z,1.92
2017-05-03T15:09:42.188Z,2.80
2017-05-03T15:12:12.890Z,3.02
2017-05-03T15:14:43.819Z,1.94
2017-05-03T15:17:14.114Z,1.64
2017-05-03T15:19:45.506Z,2.22
2017-05-03T15:22:16.447Z,3.60
2017-05-03T15:24:47.213Z,3.22
2017-05-03T15:27:18.193Z,5.06
2017-05-03T15:29:49.065Z,5.76
2017-05-03T15:32:20.278Z,14.06
2017-05-03T15:34:52.016Z,6.90
2017-05-03T15:37:23.024Z,6.58
2017-05-03T15:39:53.707Z,5.70
2017-05-03T15:42:24.666Z,5.84
2017-05-03T15:44:55.384Z,10.04
2017-05-03T15:47:26.163Z,8.76
2017-05-03T15:49:57.054Z,9.78
2017-05-03T15:52:27.743Z,22.40
2017-05-03T15:54:58.353Z,28.12
2017-05-03T15:57:29.251Z,23.66
2017-05-03T16:00:00.254Z,20.12
2017-05-03T16:02:31.059Z,19.62
2017-05-03T16:05:01.678Z,20.16
2017-05-03T16:07:32.703Z,20.64
2017-05-03T16:10:04.322Z,13.84
2017-05-03T16:12:35.215Z,13.92
2017-05-03T16:15:06.229Z,13.88
2017-05-03T16:17:37.067Z,11.74
2017-05-03T16:20:07.712Z,15.72
2017-05-03T16:22:38.417Z,19.42
2017-05-03T16:25:09.196Z,13.48
2017-05-03T16:27:39.938Z,13.62
2017-05-03T16:30:10.967Z,14.04
2017-05-03T16:32:41.907Z,15.12
2017-05-03T16:35:14.106Z,13.78
2017-05-03T16:37:44.856Z,13.22
2017-05-03T16:40:15.673Z,12.08
2017-05-03T16:42:46.480Z,16.40
2017-05-03T16:45:17.547Z,18.22
2017-05-03T16:47:48.621Z,18.20
2017-05-03T16:50:19.436Z,17.80
2017-05-03T16:52:50.124Z,23.08
2017-05-03T16:55:21.007Z,16.64
2017-05-03T16:57:51.657Z,16.40
2017-05-03T17:00:22.232Z,18.50
2017-05-03T17:02:54.170Z,17.18
2017-05-03T17:05:26.024Z,16.24
2017-05-03T17:07:56.782Z,21.34
2017-05-03T17:10:28.232Z,18.96
2017-05-03T17:13:00.074Z,25.06
2017-05-03T17:15:31.085Z,19.18
2017-05-03T17:18:01.980Z,13.48
2017-05-03T17:20:32.712Z,15.20
2017-05-03T17:23:03.658Z,14.72
2017-05-03T17:25:34.248Z,12.84
2017-05-03T17:28:04.851Z,20.22
2017-05-03T17:30:35.596Z,15.88
2017-05-03T17:33:06.393Z,17.50
2017-05-03T17:35:38.448Z,15.26
2017-05-03T17:38:09.278Z,14.90
2017-05-03T17:40:39.954Z,21.42
2017-05-03T17:43:10.852Z,17.64
2017-05-03T17:45:41.623Z,15.08
2017-05-03T17:48:12.402Z,11.26
2017-05-03T17:50:43.352Z,10.48
2017-05-03T17:53:14.185Z,10.86
2017-05-03T17:55:45.144Z,10.70
2017-05-03T17:58:16.885Z,9.56
2017-05-03T18:00:48.607Z,9.10
2017-05-03T18:03:19.479Z,10.46
2017-05-03T18:05:50.953Z,10.42
2017-05-03T18:08:21.748Z,7.76
2017-05-03T18:10:52.453Z,10.74
2017-05-03T18:13:23.441Z,11.10
2017-05-03T18:15:53.742Z,9.34
2017-05-03T18:18:24.543Z,9.96
2017-05-03T18:20:55.053Z,7.34
2017-05-03T18:23:25.779Z,6.86
2017-05-03T18:25:56.665Z,7.16
2017-05-03T18:28:27.362Z,6.66
2017-05-03T18:30:58.292Z,5.52
2017-05-03T18:33:29.006Z,7.36
2017-05-03T18:36:00.908Z,5.22
2017-05-03T18:38:31.708Z,9.12
2017-05-03T18:41:02.372Z,6.64
2017-05-03T18:43:33.197Z,5.94
2017-05-03T18:46:03.970Z,6.46
2017-05-03T18:48:34.665Z,6.52
2017-05-03T18:51:05.645Z,6.30
2017-05-03T18:53:36.454Z,6.14
2017-05-03T18:56:07.388Z,5.70
2017-05-03T18:58:38.201Z,4.66
2017-05-03T19:01:08.865Z,5.78
2017-05-03T19:03:39.539Z,5.88
2017-05-03T19:06:10.471Z,4.78
2017-05-03T19:08:40.980Z,5.58
2017-05-03T19:11:11.837Z,5.28
2017-05-03T19:13:42.478Z,4.96
2017-05-03T19:16:13.508Z,4.38
2017-05-03T19:18:44.094Z,4.06
2017-05-03T19:21:14.928Z,4.70
2017-05-03T19:23:45.548Z,4.24
2017-05-03T19:26:16.385Z,3.96
2017-05-03T19:28:47.335Z,3.42
2017-05-03T19:31:17.889Z,3.12
2017-05-03T19:33:48.832Z,3.08
2017-05-03T19:36:21.328Z,3.60
2017-05-03T19:38:51.999Z,2.80
2017-05-03T19:41:22.735Z,2.96
2017-05-03T19:43:53.331Z,2.54
2017-05-03T19:46:23.671Z,2.58
2017-05-03T19:48:54.545Z,2.80
2017-05-03T19:51:25.471Z,3.12
2017-05-03T19:53:56.139Z,3.34
2017-05-03T19:56:27.044Z,2.66
2017-05-03T19:58:57.826Z,2.24
2017-05-03T20:01:28.478Z,4.04
2017-05-03T20:03:59.275Z,2.18
2017-05-03T20:06:30.112Z,3.28
2017-05-03T20:09:01.021Z,3.92
2017-05-03T20:11:32.218Z,2.84
2017-05-03T20:14:03.370Z,2.68
2017-05-03T20:16:34.044Z,3.94
2017-05-03T20:19:05.071Z,3.36
2017-05-03T20:21:36.041Z,1.68
2017-05-03T20:24:06.773Z,2.14
2017-05-03T20:26:37.451Z,2.04
2017-05-03T20:29:08.312Z,4.08
2017-05-03T20:31:39.213Z,3.02
2017-05-03T20:34:09.823Z,2.00
2017-05-03T20:36:41.432Z,5.06
2017-05-03T20:39:12.824Z,2.02
2017-05-03T20:41:44.178Z,2.62
2017-05-03T20:44:15.173Z,1.82
2017-05-03T20:46:46.874Z,1.78
2017-05-03T20:49:17.549Z,1.94
2017-05-03T20:51:48.220Z,2.56
2017-05-03T20:54:18.877Z,1.62
2017-05-03T20:56:49.662Z,1.50
2017-05-03T20:59:20.693Z,1.64
2017-05-03T21:01:51.563Z,3.68
2017-05-03T21:04:22.422Z,1.64
2017-05-03T21:06:53.359Z,1.56
2017-05-03T21:09:24.038Z,1.94
2017-05-03T21:11:55.060Z,1.40
2017-05-03T21:14:25.979Z,4.42
2017-05-03T21:16:56.812Z,2.26
2017-05-03T21:19:27.875Z,2.28
2017-05-03T21:21:58.585Z,1.40
2017-05-03T21:24:29.565Z,1.52
2017-05-03T21:27:00.129Z,1.62
2017-05-03T21:29:31.349Z,2.98
2017-05-03T21:32:02.201Z,1.76
2017-05-03T21:34:33.182Z,3.12
2017-05-03T21:37:04.891Z,2.86
2017-05-03T21:39:36.441Z,3.10
2017-05-03T21:42:07.245Z,1.98
2017-05-03T21:44:38.152Z,3.54
2017-05-03T21:47:09.081Z,1.60
2017-05-03T21:49:39.884Z,1.94
2017-05-03T21:52:10.751Z,1.28
2017-05-03T21:54:41.629Z,3.98
2017-05-03T21:57:12.394Z,5.50
2017-05-03T21:59:43.167Z,1.40
2017-05-03T22:02:14.043Z,4.72
2017-05-03T22:04:45.065Z,1.44
2017-05-03T22:07:15.436Z,1.82
2017-05-03T22:09:46.302Z,1.04
2017-05-03T22:12:17.308Z,1.42
2017-05-03T22:14:48.205Z,2.44
2017-05-03T22:17:19.004Z,2.82
2017-05-03T22:19:50.165Z,2.26
2017-05-03T22:22:21.223Z,2.42
2017-05-03T22:24:51.857Z,4.18
2017-05-03T22:27:22.484Z,3.04
2017-05-03T22:29:53.282Z,2.56
2017-05-03T22:32:24.211Z,1.98
2017-05-03T22:34:55.866Z,2.38
2017-05-03T22:37:27.327Z,1.00
2017-05-03T22:39:58.161Z,1.34
2017-05-03T22:42:29.135Z,1.24
2017-05-03T22:44:59.958Z,2.70
2017-05-03T22:47:30.516Z,1.26
2017-05-03T22:50:01.308Z,1.34
2017-05-03T22:52:31.798Z,1.12
2017-05-03T22:55:02.751Z,1.06
2017-05-03T22:57:32.801Z,0.80
2017-05-03T23:00:03.698Z,1.28
2017-05-03T23:02:34.922Z,0.92
2017-05-03T23:05:05.657Z,2.50
2017-05-03T23:07:36.480Z,2.74
2017-05-03T23:10:07.496Z,1.58
2017-05-03T23:12:38.411Z,1.10
2017-05-03T23:15:09.517Z,2.70
2017-05-03T23:17:40.162Z,1.04
2017-05-03T23:20:10.933Z,1.60
2017-05-03T23:22:41.463Z,1.02
2017-05-03T23:25:12.354Z,0.70
2017-05-03T23:27:43.125Z,0.82
2017-05-03T23:30:13.801Z,0.78
2017-05-03T23:32:44.679Z,1.38
2017-05-03T23:35:15.477Z,0.80
2017-05-03T23:37:47.175Z,2.14
2017-05-03T23:40:17.801Z,0.80
2017-05-03T23:42:48.738Z,1.60
2017-05-03T23:45:19.487Z,1.10
2017-05-03T23:47:50.122Z,0.60
2017-05-03T23:50:21.066Z,0.88
2017-05-03T23:52:51.857Z,1.56
2017-05-03T23:55:22.787Z,3.78
2017-05-03T23:57:53.655Z,0.98
